createdAt,value
2022-08-09T00:00:19.905Z,17.40
2022-08-09T00:02:49.404Z,17.30
2022-08-09T00:06:18.425Z,17.20
2022-08-09T00:08:12.914Z,17.20
2022-08-09T00:11:05.892Z,17.10
2022-08-09T00:13:49.686Z,17.10
2022-08-09T00:16:17.785Z,17.10
2022-08-09T00:18:53.177Z,16.90
2022-08-09T00:21:20.951Z,16.90
2022-08-09T00:23:57.138Z,16.80
2022-08-09T00:26:32.084Z,16.80
2022-08-09T00:29:02.773Z,16.90
2022-08-09T00:31:58.557Z,16.80
2022-08-09T00:34:19.263Z,16.80
2022-08-09T00:36:50.955Z,16.80
2022-08-09T00:40:09.189Z,16.80
2022-08-09T00:44:19.390Z,16.80
2022-08-09T00:44:53.899Z,16.80
2022-08-09T00:47:21.805Z,16.70
2022-08-09T00:49:54.998Z,16.60
2022-08-09T00:52:30.288Z,16.60
2022-08-09T00:55:02.113Z,16.60
2022-08-09T00:57:34.617Z,16.70
2022-08-09T01:00:20.439Z,16.70
2022-08-09T01:03:07.595Z,16.70
2022-08-09T01:05:57.091Z,16.70
2022-08-09T01:08:31.198Z,16.60
2022-08-09T01:11:16.334Z,16.60
2022-08-09T01:14:06.776Z,16.50
2022-08-09T01:16:47.022Z,16.50
2022-08-09T01:19:57.228Z,16.40
2022-08-09T01:22:56.670Z,16.40
2022-08-09T01:25:48.947Z,16.40
2022-08-09T01:38:05.794Z,16.50
2022-08-09T01:40:28.757Z,16.50
2022-08-09T01:42:58.164Z,16.60
2022-08-09T01:45:27.808Z,16.50
2022-08-09T01:47:58.979Z,16.50
2022-08-09T01:50:36.445Z,16.50
2022-08-09T01:53:19.575Z,16.40
2022-08-09T01:55:49.927Z,16.40
2022-08-09T01:58:18.150Z,16.50
2022-08-09T02:00:53.487Z,16.40
2022-08-09T02:03:21.708Z,16.30
2022-08-09T02:06:06.593Z,16.40
2022-08-09T02:08:57.830Z,16.40
2022-08-09T02:11:42.030Z,16.30
2022-08-09T02:14:14.974Z,16.30
2022-08-09T02:16:59.633Z,16.30
2022-08-09T02:19:43.217Z,16.30
2022-08-09T02:22:40.800Z,16.30
2022-08-09T02:25:25.092Z,16.10
2022-08-09T02:28:03.532Z,16.20
2022-08-09T02:30:43.740Z,16.20
2022-08-09T02:33:19.368Z,16.20
2022-08-09T02:36:02.794Z,16.20
2022-08-09T02:38:47.850Z,16.10
2022-08-09T02:41:23.755Z,16.10
2022-08-09T02:43:54.567Z,16.10
2022-08-09T02:46:24.380Z,16.10
2022-08-09T02:48:53.934Z,16.10
2022-08-09T02:51:22.605Z,16.00
2022-08-09T02:54:00.934Z,16.00
2022-08-09T02:56:33.208Z,16.00
2022-08-09T02:59:05.030Z,16.00
2022-08-09T03:01:42.573Z,15.90
2022-08-09T03:04:26.278Z,15.90
2022-08-09T03:06:59.668Z,15.90
2022-08-09T03:09:42.850Z,15.80
2022-08-09T03:12:13.430Z,15.80
2022-08-09T03:14:42.951Z,15.80
2022-08-09T03:17:16.348Z,15.70
2022-08-09T03:19:58.471Z,15.60
2022-08-09T03:22:30.976Z,15.60
2022-08-09T03:25:06.513Z,15.60
2022-08-09T03:27:50.380Z,15.50
2022-08-09T03:30:30.004Z,15.50
2022-08-09T03:33:17.768Z,15.40
2022-08-09T03:36:13.061Z,15.50
2022-08-09T03:38:41.599Z,15.40
2022-08-09T03:41:14.725Z,15.30
2022-08-09T03:44:03.661Z,15.30
2022-08-09T03:46:31.235Z,15.30
2022-08-09T03:49:04.084Z,15.30
2022-08-09T03:51:55.541Z,15.20
2022-08-09T03:54:29.777Z,15.20
2022-08-09T03:57:00.641Z,15.20
2022-08-09T03:59:53.214Z,15.10
2022-08-09T04:02:15.160Z,15.00
2022-08-09T04:04:54.164Z,15.10
2022-08-09T04:07:21.416Z,15.10
2022-08-09T04:09:52.973Z,15.10
2022-08-09T04:12:50.892Z,15.10
2022-08-09T04:15:40.395Z,15.10
2022-08-09T04:18:07.667Z,15.00
2022-08-09T04:20:34.662Z,15.00
2022-08-09T04:23:01.937Z,14.90
2022-08-09T04:25:29.729Z,14.90
2022-08-09T04:27:59.822Z,14.90
2022-08-09T04:30:29.636Z,14.80
2022-08-09T04:32:57.198Z,14.80
2022-08-09T04:35:24.145Z,14.80
2022-08-09T04:37:51.247Z,14.90
2022-08-09T04:40:19.669Z,15.00
2022-08-09T04:43:03.896Z,15.20
2022-08-09T04:45:36.224Z,15.40
2022-08-09T04:48:19.426Z,15.50
2022-08-09T04:50:46.576Z,15.60
2022-08-09T04:53:17.288Z,15.70
2022-08-09T04:55:57.885Z,15.70
2022-08-09T04:58:27.120Z,15.70
2022-08-09T05:00:55.354Z,15.70
2022-08-09T05:03:40.208Z,15.70
2022-08-09T05:06:09.997Z,15.70
2022-08-09T05:08:38.837Z,15.80
2022-08-09T05:11:11.351Z,15.80
2022-08-09T05:13:40.714Z,15.90
2022-08-09T05:16:08.629Z,15.90
2022-08-09T05:18:50.625Z,16.00
2022-08-09T05:21:29.867Z,16.10
2022-08-09T05:24:01.516Z,16.20
2022-08-09T05:26:45.336Z,16.10
2022-08-09T05:29:24.058Z,16.20
2022-08-09T05:31:56.227Z,16.30
2022-08-09T05:34:30.690Z,16.30
2022-08-09T05:37:11.229Z,16.40
2022-08-09T05:39:43.690Z,16.50
2022-08-09T05:42:17.456Z,16.60
2022-08-09T05:44:54.176Z,16.60
2022-08-09T05:47:23.792Z,16.60
2022-08-09T05:50:30.683Z,16.60
2022-08-09T05:52:43.773Z,16.70
2022-08-09T05:55:18.046Z,16.80
2022-08-09T05:57:55.587Z,16.90
2022-08-09T06:00:29.672Z,17.00
2022-08-09T06:03:02.441Z,17.10
2022-08-09T06:05:56.904Z,17.20
2022-08-09T06:08:24.415Z,17.10
2022-08-09T06:10:57.995Z,17.20
2022-08-09T06:13:28.333Z,17.20
2022-08-09T06:16:00.748Z,17.40
2022-08-09T06:18:28.722Z,17.60
2022-08-09T06:20:58.584Z,17.60
2022-08-09T06:23:58.951Z,17.60
2022-08-09T06:26:20.337Z,17.70
2022-08-09T06:29:00.425Z,17.80
2022-08-09T06:31:40.173Z,17.90
2022-08-09T06:34:20.296Z,17.90
2022-08-09T06:36:50.886Z,18.00
2022-08-09T06:39:38.714Z,18.10
2022-08-09T06:42:14.909Z,18.10
2022-08-09T06:44:41.876Z,18.20
2022-08-09T06:47:10.693Z,18.30
2022-08-09T06:50:11.165Z,18.30
2022-08-09T06:52:27.172Z,18.40
2022-08-09T06:54:54.598Z,18.50
2022-08-09T06:57:42.776Z,18.70
2022-08-09T07:00:55.291Z,18.60
2022-08-09T07:02:57.793Z,18.70
2022-08-09T07:05:25.505Z,18.70
2022-08-09T07:08:12.449Z,18.80
2022-08-09T07:10:39.669Z,19.00
2022-08-09T07:13:27.910Z,19.00
2022-08-09T07:16:39.038Z,19.00
2022-08-09T07:18:41.068Z,19.10
2022-08-09T07:21:10.509Z,19.20
2022-08-09T07:23:56.238Z,19.30
2022-08-09T07:26:24.843Z,19.40
2022-08-09T07:29:08.393Z,19.40
2022-08-09T07:31:38.551Z,19.50
2022-08-09T07:34:15.070Z,19.60
2022-08-09T07:36:47.911Z,19.70
2022-08-09T07:39:20.622Z,19.80
2022-08-09T07:42:02.741Z,19.80
2022-08-09T07:44:33.092Z,20.10
2022-08-09T07:47:17.903Z,20.00
2022-08-09T07:49:52.407Z,20.10
2022-08-09T07:52:32.549Z,20.30
2022-08-09T07:54:59.710Z,20.30
2022-08-09T07:57:33.958Z,20.40
2022-08-09T08:00:08.947Z,20.50
2022-08-09T08:02:42.652Z,20.50
2022-08-09T08:05:18.555Z,20.60
2022-08-09T08:08:43.622Z,20.60
2022-08-09T08:10:34.705Z,20.70
2022-08-09T08:13:03.683Z,20.90
2022-08-09T08:15:35.489Z,20.90
2022-08-09T08:18:06.357Z,21.10
2022-08-09T08:20:33.629Z,21.20
2022-08-09T08:23:16.302Z,21.20
2022-08-09T08:25:50.245Z,21.10
2022-08-09T08:28:25.744Z,21.60
2022-08-09T08:31:04.657Z,21.60
2022-08-09T08:33:52.038Z,21.50
2022-08-09T08:36:29.238Z,21.60
2022-08-09T08:38:58.230Z,21.80
2022-08-09T08:41:41.708Z,21.70
2022-08-09T08:44:14.635Z,22.00
2022-08-09T08:47:02.654Z,22.10
2022-08-09T08:49:38.598Z,22.20
2022-08-09T08:52:50.390Z,22.20
2022-08-09T08:55:03.881Z,22.40
2022-08-09T08:57:34.691Z,22.50
2022-08-09T09:00:08.261Z,22.50
2022-08-09T09:02:41.988Z,22.50
2022-08-09T09:05:19.446Z,22.60
2022-08-09T09:08:00.745Z,22.70
2022-08-09T09:10:29.798Z,22.90
2022-08-09T09:12:57.441Z,23.00
2022-08-09T09:15:28.545Z,23.10
2022-08-09T09:17:55.827Z,23.30
2022-08-09T09:20:22.901Z,23.30
2022-08-09T09:23:01.821Z,23.30
2022-08-09T09:26:01.629Z,23.30
2022-08-09T09:29:02.609Z,23.40
2022-08-09T09:32:01.762Z,23.50
2022-08-09T09:34:15.367Z,23.60
2022-08-09T09:36:51.068Z,23.60
2022-08-09T09:39:23.432Z,23.70
2022-08-09T09:41:54.210Z,23.90
2022-08-09T09:44:31.542Z,24.10
2022-08-09T09:47:07.237Z,24.10
2022-08-09T09:50:06.918Z,24.30
2022-08-09T09:52:36.104Z,24.20
2022-08-09T09:55:16.190Z,24.30
2022-08-09T09:58:17.295Z,24.50
2022-08-09T10:00:53.808Z,24.70
2022-08-09T10:03:56.079Z,24.70
2022-08-09T10:06:23.776Z,24.80
2022-08-09T10:08:57.167Z,24.90
2022-08-09T10:11:59.172Z,25.00
2022-08-09T10:14:33.675Z,25.10
2022-08-09T10:17:39.179Z,25.10
2022-08-09T10:20:15.120Z,25.30
2022-08-09T10:22:42.548Z,25.40
2022-08-09T10:25:14.200Z,25.60
2022-08-09T10:27:56.076Z,25.60
2022-08-09T10:34:33.512Z,25.80
2022-08-09T10:37:03.130Z,26.10
2022-08-09T10:39:30.440Z,26.30
2022-08-09T10:42:08.791Z,26.30
2022-08-09T10:44:39.757Z,26.30
2022-08-09T10:48:19.156Z,26.30
2022-08-09T10:50:03.489Z,26.30
2022-08-09T10:53:10.159Z,26.40
2022-08-09T10:55:57.947Z,26.50
2022-08-09T10:58:37.382Z,26.50
2022-08-09T11:03:06.628Z,26.60
2022-08-09T11:04:20.121Z,26.60
2022-08-09T11:06:58.091Z,26.80
2022-08-09T11:09:41.216Z,26.90
2022-08-09T11:12:29.529Z,27.10
2022-08-09T11:15:07.448Z,27.10
2022-08-09T11:17:42.037Z,27.00
2022-08-09T11:20:22.313Z,26.90
2022-08-09T11:22:56.677Z,27.10
2022-08-09T11:25:36.222Z,27.10
2022-08-09T11:28:38.786Z,27.10
2022-08-09T11:31:43.163Z,27.30
2022-08-09T11:34:35.162Z,27.40
2022-08-09T11:37:07.538Z,27.50
2022-08-09T11:40:02.967Z,27.50
2022-08-09T11:42:51.730Z,27.60
2022-08-09T11:45:23.334Z,27.60
2022-08-09T11:47:56.422Z,27.60
2022-08-09T11:50:55.162Z,27.70
2022-08-09T11:54:01.784Z,27.80
2022-08-09T11:56:42.785Z,27.80
2022-08-09T11:59:30.254Z,27.90
2022-08-09T12:02:17.661Z,27.90
2022-08-09T12:04:58.157Z,28.00
2022-08-09T12:07:41.074Z,28.00
2022-08-09T12:10:14.312Z,28.00
2022-08-09T12:13:00.376Z,28.00
2022-08-09T12:15:49.074Z,28.10
2022-08-09T12:18:30.020Z,28.20
2022-08-09T12:21:03.044Z,28.20
2022-08-09T12:23:56.454Z,27.80
2022-08-09T12:26:25.525Z,27.60
2022-08-09T12:29:14.483Z,27.60
2022-08-09T12:32:01.949Z,27.80
2022-08-09T12:34:38.501Z,28.10
2022-08-09T12:37:21.994Z,28.10
2022-08-09T12:40:05.649Z,28.20
2022-08-09T12:42:34.029Z,28.20
2022-08-09T12:45:02.089Z,28.30
2022-08-09T12:47:40.720Z,28.20
2022-08-09T12:50:20.032Z,28.10
2022-08-09T12:53:08.442Z,28.20
2022-08-09T12:56:15.819Z,28.20
2022-08-09T12:58:27.387Z,28.10
2022-08-09T13:00:55.724Z,28.20
2022-08-09T13:03:52.812Z,28.30
2022-08-09T13:06:35.806Z,28.40
2022-08-09T13:09:13.549Z,28.40
2022-08-09T13:11:46.688Z,28.40
2022-08-09T13:14:43.996Z,28.50
2022-08-09T13:17:21.944Z,28.60
2022-08-09T13:20:16.027Z,28.60
2022-08-09T13:23:01.586Z,28.50
2022-08-09T13:25:54.388Z,28.50
2022-08-09T13:28:33.699Z,28.70
2022-08-09T13:32:13.952Z,28.70
2022-08-09T13:34:06.829Z,28.60
2022-08-09T13:36:40.783Z,28.50
2022-08-09T13:41:51.857Z,28.50
2022-08-09T13:42:12.271Z,28.60
2022-08-09T13:44:43.707Z,28.70
2022-08-09T13:47:31.153Z,28.70
2022-08-09T13:50:18.145Z,28.70
2022-08-09T13:52:57.166Z,28.80
2022-08-09T13:55:24.781Z,28.90
2022-08-09T13:57:58.564Z,28.90
2022-08-09T14:00:28.443Z,28.80
2022-08-09T14:03:03.603Z,28.80
2022-08-09T14:05:56.563Z,28.90
2022-08-09T14:08:28.311Z,29.00
2022-08-09T14:10:56.198Z,29.10
2022-08-09T14:14:15.056Z,29.10
2022-08-09T14:16:15.057Z,29.00
2022-08-09T14:18:48.899Z,29.10
2022-08-09T14:21:23.112Z,29.10
2022-08-09T14:23:57.039Z,29.10
2022-08-09T14:26:30.213Z,29.20
2022-08-09T14:29:03.508Z,29.30
2022-08-09T14:31:50.159Z,29.20
2022-08-09T14:34:30.967Z,29.20
2022-08-09T14:37:07.880Z,29.40
2022-08-09T14:39:47.022Z,29.40
2022-08-09T14:42:30.424Z,29.40
2022-08-09T14:46:39.116Z,29.40
2022-08-09T14:47:57.000Z,29.40
2022-08-09T14:50:31.089Z,29.30
2022-08-09T14:53:03.080Z,29.40
2022-08-09T14:55:33.577Z,29.40
2022-08-09T14:58:05.296Z,29.20
2022-08-09T15:00:34.408Z,29.10
2022-08-09T15:03:08.766Z,28.80
2022-08-09T15:05:37.256Z,28.90
2022-08-09T15:08:05.596Z,29.00
2022-08-09T15:10:35.091Z,29.20
2022-08-09T15:13:04.141Z,29.10
2022-08-09T15:15:34.562Z,29.10
2022-08-09T15:18:12.205Z,29.00
2022-08-09T15:21:57.383Z,29.00
2022-08-09T15:24:01.493Z,29.00
2022-08-09T15:26:18.432Z,28.80
2022-08-09T15:28:54.703Z,28.80
2022-08-09T15:31:22.350Z,28.70
2022-08-09T15:34:33.037Z,28.70
2022-08-09T15:36:48.144Z,28.50
2022-08-09T15:39:17.213Z,28.30
2022-08-09T15:41:49.884Z,28.30
2022-08-09T15:44:19.827Z,28.30
2022-08-09T15:46:49.996Z,28.20
2022-08-09T15:49:21.792Z,28.20
2022-08-09T15:52:04.461Z,28.30
2022-08-09T15:54:44.778Z,28.30
2022-08-09T15:57:35.099Z,28.20
2022-08-09T16:00:14.710Z,28.20
2022-08-09T16:02:48.075Z,28.10
2022-08-09T16:05:22.635Z,28.20
2022-08-09T16:07:50.975Z,27.90
2022-08-09T16:10:54.966Z,27.90
2022-08-09T16:13:18.687Z,28.00
2022-08-09T16:16:11.421Z,28.00
2022-08-09T16:18:35.864Z,28.10
2022-08-09T16:21:02.908Z,28.00
2022-08-09T16:23:29.874Z,28.00
2022-08-09T16:26:00.925Z,28.00
2022-08-09T16:28:29.967Z,28.00
2022-08-09T16:30:59.266Z,27.90
2022-08-09T16:33:27.483Z,27.80
2022-08-09T16:36:00.999Z,27.80
2022-08-09T16:38:31.662Z,27.80
2022-08-09T16:40:59.341Z,27.80
2022-08-09T16:43:31.549Z,27.80
2022-08-09T16:45:58.603Z,27.60
2022-08-09T16:48:39.567Z,27.50
2022-08-09T16:51:14.890Z,27.50
2022-08-09T16:54:09.106Z,27.50
2022-08-09T16:56:31.486Z,27.40
2022-08-09T16:58:59.427Z,27.20
2022-08-09T17:01:33.842Z,27.10
2022-08-09T17:04:03.239Z,27.10
2022-08-09T17:06:33.450Z,27.00
2022-08-09T17:09:17.624Z,27.00
2022-08-09T17:11:51.440Z,27.00
2022-08-09T17:14:25.572Z,26.90
2022-08-09T17:17:02.393Z,26.80
2022-08-09T17:19:46.442Z,26.60
2022-08-09T17:22:25.087Z,26.50
2022-08-09T17:25:10.146Z,26.50
2022-08-09T17:27:49.139Z,26.30
2022-08-09T17:30:25.665Z,26.40
2022-08-09T17:32:54.025Z,26.30
2022-08-09T17:35:20.983Z,26.20
2022-08-09T17:38:12.642Z,26.00
2022-08-09T17:40:35.781Z,25.90
2022-08-09T17:43:33.090Z,25.90
2022-08-09T17:46:03.681Z,25.70
2022-08-09T17:48:40.439Z,25.60
2022-08-09T17:51:18.338Z,25.70
2022-08-09T17:53:54.957Z,25.60
2022-08-09T17:56:27.514Z,25.50
2022-08-09T17:59:01.211Z,25.50
2022-08-09T18:02:03.314Z,25.20
2022-08-09T18:04:19.796Z,25.20
2022-08-09T18:06:54.453Z,25.10
2022-08-09T18:09:25.141Z,25.00
2022-08-09T18:12:14.470Z,24.90
2022-08-09T18:14:49.823Z,24.80
2022-08-09T18:17:27.566Z,24.70
2022-08-09T18:20:55.624Z,24.70
2022-08-09T18:22:56.108Z,24.60
2022-08-09T18:25:53.573Z,24.50
2022-08-09T18:28:19.030Z,24.30
2022-08-09T18:30:58.250Z,24.20
2022-08-09T18:33:25.683Z,24.20
2022-08-09T18:35:59.886Z,24.10
2022-08-09T18:38:27.967Z,24.00
2022-08-09T18:40:55.672Z,23.80
2022-08-09T18:43:23.772Z,23.70
2022-08-09T18:46:46.670Z,23.70
2022-08-09T18:48:38.718Z,23.60
2022-08-09T18:51:10.022Z,23.50
2022-08-09T18:53:59.580Z,23.50
2022-08-09T18:56:27.044Z,23.40
2022-08-09T18:58:56.961Z,23.40
2022-08-09T19:01:25.614Z,23.20
2022-08-09T19:04:05.926Z,23.10
2022-08-09T19:06:34.416Z,23.00
2022-08-09T19:09:04.619Z,22.90
2022-08-09T19:11:37.829Z,22.90
2022-08-09T19:14:06.898Z,22.60
2022-08-09T19:16:36.650Z,22.60
2022-08-09T19:19:26.162Z,22.70
2022-08-09T19:22:04.408Z,22.50
2022-08-09T19:24:38.322Z,22.20
2022-08-09T19:27:16.624Z,22.10
2022-08-09T19:30:22.029Z,22.20
2022-08-09T19:32:31.608Z,22.30
2022-08-09T19:35:00.663Z,22.30
2022-08-09T19:37:29.319Z,22.10
2022-08-09T19:40:09.322Z,21.90
2022-08-09T19:42:36.645Z,22.00
2022-08-09T19:45:06.466Z,22.00
2022-08-09T19:47:38.207Z,21.90
2022-08-09T19:50:48.184Z,21.60
2022-08-09T19:52:53.531Z,21.60
2022-08-09T19:55:30.835Z,21.40
2022-08-09T19:58:16.584Z,21.50
2022-08-09T20:00:45.772Z,21.50
2022-08-09T20:04:24.113Z,21.40
2022-08-09T20:06:03.359Z,21.40
2022-08-09T20:08:35.440Z,21.30
2022-08-09T20:11:04.206Z,21.10
2022-08-09T20:13:37.203Z,21.00
2022-08-09T20:16:33.818Z,20.90
2022-08-09T20:19:42.881Z,21.00
2022-08-09T20:21:55.948Z,21.00
2022-08-09T20:24:31.953Z,21.00
2022-08-09T20:27:02.472Z,20.80
2022-08-09T20:29:37.019Z,20.80
2022-08-09T20:32:28.664Z,20.70
2022-08-09T20:34:54.573Z,20.70
2022-08-09T20:37:22.484Z,20.80
2022-08-09T20:40:14.847Z,20.80
2022-08-09T20:42:37.737Z,20.80
2022-08-09T20:47:53.114Z,20.40
2022-08-09T20:50:47.104Z,20.30
2022-08-09T20:53:18.730Z,20.30
2022-08-09T20:56:02.245Z,20.40
2022-08-09T20:58:32.769Z,20.20
2022-08-09T21:01:33.273Z,20.20
2022-08-09T21:05:48.581Z,20.10
2022-08-09T21:06:41.266Z,20.10
2022-08-09T21:09:13.560Z,19.90
2022-08-09T21:14:31.233Z,19.60
2022-08-09T21:16:59.432Z,19.70
2022-08-09T21:20:18.317Z,19.60
2022-08-09T21:22:35.882Z,19.60
2022-08-09T21:25:21.227Z,19.60
2022-08-09T21:28:00.419Z,19.30
2022-08-09T21:30:27.517Z,19.30
2022-08-09T21:32:54.522Z,19.40
2022-08-09T21:35:24.279Z,19.40
2022-08-09T21:37:58.813Z,19.20
2022-08-09T21:40:30.945Z,19.30
2022-08-09T21:43:00.770Z,19.30
2022-08-09T21:45:28.423Z,19.20
2022-08-09T21:47:58.263Z,19.20
2022-08-09T21:50:38.476Z,19.20
2022-08-09T21:53:19.916Z,18.90
2022-08-09T21:55:56.987Z,19.00
2022-08-09T21:58:29.175Z,19.00
2022-08-09T22:00:58.687Z,18.70
2022-08-09T22:03:26.232Z,18.80
2022-08-09T22:05:55.194Z,18.80
2022-08-09T22:08:28.354Z,18.60
2022-08-09T22:11:50.024Z,18.60
2022-08-09T22:13:43.967Z,18.60
2022-08-09T22:16:11.907Z,18.50
2022-08-09T22:18:53.526Z,18.40
2022-08-09T22:21:50.041Z,18.30
2022-08-09T22:24:21.104Z,18.30
2022-08-09T22:26:52.735Z,18.20
2022-08-09T22:29:24.106Z,18.10
2022-08-09T22:31:57.263Z,18.10
2022-08-09T22:34:26.469Z,18.00
2022-08-09T22:36:55.188Z,18.00
2022-08-09T22:39:56.413Z,18.10
2022-08-09T22:42:20.978Z,18.00
2022-08-09T22:45:00.141Z,17.90
2022-08-09T22:48:18.626Z,17.70
2022-08-09T22:50:30.321Z,17.80
2022-08-09T22:52:59.157Z,17.80
2022-08-09T22:55:39.384Z,17.80
2022-08-09T22:58:30.584Z,17.50
2022-08-09T23:00:59.946Z,17.60
2022-08-09T23:04:02.862Z,17.70
2022-08-09T23:06:14.475Z,17.70
2022-08-09T23:08:56.862Z,17.70
2022-08-09T23:11:23.789Z,17.40
2022-08-09T23:13:53.070Z,17.30
2022-08-09T23:16:22.499Z,17.30
2022-08-09T23:18:49.915Z,17.30
2022-08-09T23:21:24.564Z,17.40
2022-08-09T23:23:58.782Z,17.40
2022-08-09T23:26:37.286Z,17.40
2022-08-09T23:29:11.330Z,17.30
2022-08-09T23:31:38.571Z,17.10
2022-08-09T23:34:06.704Z,17.10
2022-08-09T23:36:35.127Z,17.10
2022-08-09T23:39:03.639Z,16.90
2022-08-09T23:41:30.765Z,16.80
2022-08-09T23:43:59.473Z,16.80
2022-08-09T23:46:27.342Z,16.80
2022-08-09T23:48:54.457Z,16.90
2022-08-09T23:51:21.879Z,16.90
2022-08-09T23:53:50.392Z,17.00
2022-08-09T23:56:39.501Z,17.00
2022-08-09T23:59:04.935Z,17.10
